Time;durP1;ratioP1;P1;durP2;ratioP2;P2;SDS_P1;SDS_P2;PMS_P1;PMS_P2;Temp;Humidity;BMP_temperature;BMP_pressure;BME280_temperature;BME280_humidity;BME280_pressure;Samples;Min_cycle;Max_cycle;Signal;HPM_P1;HPM_P2
2022/06/21 00:01:17;;;;;;;;;;;23.90;53.20;;;;;;5004776;28;19922;-64
2022/06/21 00:03:43;;;;;;;;;;;23.90;53.10;;;;;;5004546;28;19921;-64
2022/06/21 00:06:09;;;;;;;;;;;23.90;53.20;;;;;;5006102;28;19918;-64
2022/06/21 00:08:35;;;;;;;;;;;23.90;53.20;;;;;;4988007;28;20001;-64
2022/06/21 00:11:01;;;;;;;;;;;23.90;53.10;;;;;;5004535;28;20087;-64
2022/06/21 00:13:27;;;;;;;;;;;23.90;53.10;;;;;;5004728;28;19913;-65
2022/06/21 00:15:53;;;;;;;;;;;23.90;53.20;;;;;;5006220;28;19913;-64
2022/06/21 00:18:19;;;;;;;;;;;23.90;53.10;;;;;;5005927;28;20016;-64
2022/06/21 00:20:45;;;;;;;;;;;23.80;53.00;;;;;;5005796;28;19929;-64
2022/06/21 00:23:14;;;;;;;;;;;23.90;53.10;;;;;;5004171;28;19928;-64
2022/06/21 00:25:39;;;;;;;;;;;23.80;53.00;;;;;;5005625;28;19924;-64
2022/06/21 00:28:05;;;;;;;;;;;23.80;53.00;;;;;;5004320;28;19914;-63
2022/06/21 00:30:30;;;;;;;;;;;23.80;53.00;;;;;;5005346;28;20424;-64
2022/06/21 00:32:55;;;;;;;;;;;23.80;52.90;;;;;;5004016;28;20392;-65
2022/06/21 00:35:21;;;;;;;;;;;23.80;53.00;;;;;;5003649;28;19979;-65
2022/06/21 00:37:47;;;;;;;;;;;23.80;52.90;;;;;;5004060;28;20470;-64
2022/06/21 00:40:17;;;;;;;;;;;23.80;53.00;;;;;;5004031;28;19917;-65
2022/06/21 00:42:42;;;;;;;;;;;23.80;53.00;;;;;;4987080;28;19922;-64
2022/06/21 00:45:12;;;;;;;;;;;23.70;52.90;;;;;;5003891;28;19967;-64
2022/06/21 00:47:49;;;;;;;;;;;23.80;53.00;;;;;;5005087;28;19914;-65
2022/06/21 00:50:16;;;;;;;;;;;23.80;52.90;;;;;;4987540;28;19925;-64
2022/06/21 00:52:44;;;;;;;;;;;23.80;53.00;;;;;;5002829;28;19988;-64
2022/06/21 00:55:15;;;;;;;;;;;23.70;52.90;;;;;;5003832;28;19921;-64
2022/06/21 00:57:48;;;;;;;;;;;23.70;52.90;;;;;;5003281;28;19933;-65
2022/06/21 01:00:22;;;;;;;;;;;23.70;52.80;;;;;;5003623;28;19929;-64
2022/06/21 01:02:47;;;;;;;;;;;23.70;52.80;;;;;;5003191;28;20410;-65
2022/06/21 01:05:13;;;;;;;;;;;23.70;52.80;;;;;;5005430;28;19914;-65
2022/06/21 01:07:38;;;;;;;;;;;23.70;52.80;;;;;;5003802;28;20316;-64
2022/06/21 01:10:05;;;;;;;;;;;23.70;52.80;;;;;;5005124;28;19913;-64
2022/06/21 01:12:32;;;;;;;;;;;23.70;52.80;;;;;;5003162;28;19941;-64
2022/06/21 01:15:01;;;;;;;;;;;23.70;52.70;;;;;;5003853;28;19920;-64
2022/06/21 01:17:27;;;;;;;;;;;23.60;52.70;;;;;;5004250;28;19913;-64
2022/06/21 01:19:55;;;;;;;;;;;23.60;52.70;;;;;;5004248;28;19913;-64
2022/06/21 01:22:21;;;;;;;;;;;23.60;52.70;;;;;;5004522;28;20269;-64
2022/06/21 01:24:58;;;;;;;;;;;23.60;52.60;;;;;;5004799;28;19929;-64
2022/06/21 01:27:23;;;;;;;;;;;23.60;52.60;;;;;;5004943;28;20303;-64
2022/06/21 01:29:49;;;;;;;;;;;23.60;52.50;;;;;;5005018;28;19952;-64
2022/06/21 01:32:14;;;;;;;;;;;23.60;52.60;;;;;;5003376;28;19918;-64
2022/06/21 01:34:40;;;;;;;;;;;23.60;53.20;;;;;;5004920;28;19914;-64
2022/06/21 01:37:10;;;;;;;;;;;23.60;52.50;;;;;;5004493;28;20331;-64
2022/06/21 01:39:46;;;;;;;;;;;23.60;52.50;;;;;;5005028;28;20443;-64
2022/06/21 01:42:24;;;;;;;;;;;23.60;52.50;;;;;;5005936;28;19967;-64
2022/06/21 01:44:50;;;;;;;;;;;23.60;52.60;;;;;;5005955;28;19925;-64
2022/06/21 01:47:16;;;;;;;;;;;23.60;52.50;;;;;;5008078;28;19914;-64
2022/06/21 01:49:43;;;;;;;;;;;23.50;52.40;;;;;;5008221;28;19925;-63
2022/06/21 01:52:10;;;;;;;;;;;23.50;53.10;;;;;;5005921;28;20422;-64
2022/06/21 01:54:38;;;;;;;;;;;23.50;52.40;;;;;;5003711;28;19952;-64
2022/06/21 01:57:06;;;;;;;;;;;23.50;52.40;;;;;;5003331;28;19917;-64
2022/06/21 01:59:31;;;;;;;;;;;23.50;52.40;;;;;;4986490;28;19921;-64
2022/06/21 02:01:59;;;;;;;;;;;23.50;52.40;;;;;;5002889;28;19963;-64
2022/06/21 02:04:25;;;;;;;;;;;23.50;52.30;;;;;;5004138;28;19917;-64
2022/06/21 02:06:51;;;;;;;;;;;23.50;52.40;;;;;;5002092;28;19963;-64
2022/06/21 02:09:18;;;;;;;;;;;23.50;52.40;;;;;;5004338;28;20360;-64
2022/06/21 02:11:45;;;;;;;;;;;23.50;52.30;;;;;;5002305;28;20428;-64
2022/06/21 02:14:30;;;;;;;;;;;23.50;52.30;;;;;;5002806;28;19917;-65
2022/06/21 02:17:14;;;;;;;;;;;23.40;52.20;;;;;;5002977;28;20004;-64
2022/06/21 02:19:46;;;;;;;;;;;23.40;52.20;;;;;;5003870;28;19914;-65
2022/06/21 02:22:18;;;;;;;;;;;23.40;52.20;;;;;;5003730;28;20808;-64
2022/06/21 02:24:44;;;;;;;;;;;23.40;52.20;;;;;;5002727;28;19917;-64
2022/06/21 02:27:10;;;;;;;;;;;23.40;52.20;;;;;;5002231;28;19996;-64
2022/06/21 02:29:36;;;;;;;;;;;23.40;52.20;;;;;;5002451;28;19953;-65
2022/06/21 02:32:01;;;;;;;;;;;23.40;52.20;;;;;;5001955;28;19917;-64
2022/06/21 02:34:28;;;;;;;;;;;23.40;52.10;;;;;;5004154;28;19921;-64
2022/06/21 02:36:57;;;;;;;;;;;23.40;52.10;;;;;;5002145;28;20659;-64
2022/06/21 02:39:23;;;;;;;;;;;23.40;52.10;;;;;;5003858;28;19920;-64
2022/06/21 02:41:50;;;;;;;;;;;23.30;52.00;;;;;;5003373;28;19913;-65
2022/06/21 02:44:23;;;;;;;;;;;23.30;52.00;;;;;;5002306;28;19922;-64
2022/06/21 02:46:53;;;;;;;;;;;23.30;52.00;;;;;;5002296;28;19913;-64
2022/06/21 02:49:24;;;;;;;;;;;23.30;52.00;;;;;;5004789;28;19921;-65
2022/06/21 02:52:03;;;;;;;;;;;23.30;51.90;;;;;;5005688;28;20056;-64
2022/06/21 02:54:35;;;;;;;;;;;23.30;51.90;;;;;;5006017;28;20560;-64
2022/06/21 02:57:07;;;;;;;;;;;23.30;51.80;;;;;;5006011;28;20296;-64
2022/06/21 02:59:34;;;;;;;;;;;23.30;51.80;;;;;;5007421;28;19976;-65
2022/06/21 03:02:00;;;;;;;;;;;23.30;51.80;;;;;;5005339;28;20004;-64
2022/06/21 03:04:32;;;;;;;;;;;23.20;51.70;;;;;;5007542;28;20044;-64
2022/06/21 03:06:57;;;;;;;;;;;23.30;51.90;;;;;;4989574;28;19917;-64
2022/06/21 03:09:23;;;;;;;;;;;23.20;51.80;;;;;;4989330;28;20039;-64
2022/06/21 03:11:49;;;;;;;;;;;23.20;51.80;;;;;;5005154;28;19922;-64
2022/06/21 03:14:16;;;;;;;;;;;23.20;51.70;;;;;;5005902;28;19914;-64
2022/06/21 03:16:41;;;;;;;;;;;23.20;51.70;;;;;;5006803;28;19948;-65
2022/06/21 03:19:15;;;;;;;;;;;23.20;51.70;;;;;;5005689;28;19957;-64
2022/06/21 03:21:41;;;;;;;;;;;23.20;51.60;;;;;;5006476;28;20441;-64
2022/06/21 03:24:14;;;;;;;;;;;23.20;51.60;;;;;;5006462;28;19918;-64
2022/06/21 03:26:39;;;;;;;;;;;23.20;51.60;;;;;;5005365;28;19914;-64
2022/06/21 03:29:05;;;;;;;;;;;23.10;51.50;;;;;;5005237;28;19918;-64
2022/06/21 03:31:31;;;;;;;;;;;23.10;51.50;;;;;;5006268;28;19913;-65
2022/06/21 03:34:01;;;;;;;;;;;23.10;51.50;;;;;;5015838;28;19920;-65
2022/06/21 03:36:26;;;;;;;;;;;23.10;51.50;;;;;;5005316;28;19913;-65
2022/06/21 03:38:57;;;;;;;;;;;23.10;51.40;;;;;;5005129;28;19964;-64
2022/06/21 03:44:09;;;;;;;;;;;23.10;51.20;;;;;;5005355;28;19940;-64
2022/06/21 03:46:58;;;;;;;;;;;23.10;51.30;;;;;;5006385;28;19940;-64
2022/06/21 03:49:40;;;;;;;;;;;23.20;51.30;;;;;;4987047;28;19963;-64
2022/06/21 03:52:08;;;;;;;;;;;23.10;51.20;;;;;;5004254;28;19914;-64
2022/06/21 03:54:35;;;;;;;;;;;23.10;51.30;;;;;;5005316;28;20004;-64
2022/06/21 03:57:02;;;;;;;;;;;23.10;51.30;;;;;;5005170;28;19914;-64
2022/06/21 03:59:30;;;;;;;;;;;23.10;51.40;;;;;;5004688;28;19972;-64
2022/06/21 04:02:07;;;;;;;;;;;23.10;51.40;;;;;;5000773;28;19932;-65
2022/06/21 04:04:38;;;;;;;;;;;23.10;51.40;;;;;;5008662;28;20461;-64
2022/06/21 04:07:23;;;;;;;;;;;23.10;51.50;;;;;;5016904;28;20376;-64
2022/06/21 04:09:50;;;;;;;;;;;23.10;51.40;;;;;;5003420;28;19913;-64
2022/06/21 04:12:20;;;;;;;;;;;23.10;51.50;;;;;;5020795;28;19987;-64
2022/06/21 04:14:47;;;;;;;;;;;23.10;51.50;;;;;;5011492;28;20400;-64
2022/06/21 04:17:22;;;;;;;;;;;23.10;51.60;;;;;;5049066;22;20399;-69
2022/06/21 04:19:58;;;;;;;;;;;23.10;51.20;;;;;;5044500;28;19917;-67
2022/06/21 04:22:34;;;;;;;;;;;22.90;51.70;;;;;;5027315;28;19963;-67
2022/06/21 04:25:18;;;;;;;;;;;22.80;51.20;;;;;;5040200;28;19992;-67
2022/06/21 04:27:46;;;;;;;;;;;22.80;50.50;;;;;;5026343;28;19913;-67
2022/06/21 04:30:12;;;;;;;;;;;22.60;50.20;;;;;;5046833;28;19924;-67
2022/06/21 04:32:40;;;;;;;;;;;22.50;49.70;;;;;;5043522;28;20550;-67
2022/06/21 04:35:06;;;;;;;;;;;22.50;49.70;;;;;;5045643;28;19940;-68
2022/06/21 04:37:36;;;;;;;;;;;22.50;49.90;;;;;;5043502;28;20375;-67
2022/06/21 04:40:03;;;;;;;;;;;22.50;49.30;;;;;;5043741;28;19924;-67
2022/06/21 04:42:35;;;;;;;;;;;22.50;49.20;;;;;;5043600;28;19948;-67
2022/06/21 04:45:10;;;;;;;;;;;22.50;48.90;;;;;;5044658;28;19978;-69
2022/06/21 04:47:46;;;;;;;;;;;22.40;48.80;;;;;;5043854;28;19917;-68
2022/06/21 04:50:14;;;;;;;;;;;22.50;48.70;;;;;;5043926;28;19940;-69
2022/06/21 04:52:41;;;;;;;;;;;22.50;48.90;;;;;;5044817;28;19913;-68
2022/06/21 04:55:08;;;;;;;;;;;22.50;48.80;;;;;;5043961;28;20371;-67
2022/06/21 04:57:34;;;;;;;;;;;22.50;48.70;;;;;;5043975;28;19995;-67
2022/06/21 05:00:04;;;;;;;;;;;22.40;48.70;;;;;;5045665;28;19936;-67
2022/06/21 05:02:31;;;;;;;;;;;22.40;49.00;;;;;;5043998;28;20413;-67
2022/06/21 05:05:07;;;;;;;;;;;22.40;49.00;;;;;;5043327;28;19917;-67
2022/06/21 05:07:41;;;;;;;;;;;22.50;49.30;;;;;;5042176;28;20443;-69
2022/06/21 05:10:12;;;;;;;;;;;22.60;49.50;;;;;;5043792;28;20299;-68
2022/06/21 05:12:39;;;;;;;;;;;22.60;49.70;;;;;;5042006;28;19959;-68
2022/06/21 05:15:13;;;;;;;;;;;22.70;49.70;;;;;;5026530;28;19936;-69
2022/06/21 05:17:39;;;;;;;;;;;22.70;49.60;;;;;;5044161;28;19921;-69
2022/06/21 05:20:05;;;;;;;;;;;22.80;49.60;;;;;;5043804;28;20370;-69
2022/06/21 05:22:35;;;;;;;;;;;22.80;49.70;;;;;;5045322;28;19913;-67
2022/06/21 05:25:01;;;;;;;;;;;22.80;49.70;;;;;;5045121;28;20016;-68
2022/06/21 05:27:32;;;;;;;;;;;22.80;49.70;;;;;;5045351;28;20004;-65
2022/06/21 05:30:03;;;;;;;;;;;22.80;49.90;;;;;;5044922;28;19912;-67
2022/06/21 05:32:31;;;;;;;;;;;22.80;50.10;;;;;;5046214;28;20011;-65
2022/06/21 05:34:57;;;;;;;;;;;22.80;50.00;;;;;;5044987;28;20810;-62
2022/06/21 05:37:26;;;;;;;;;;;22.70;50.00;;;;;;5044727;28;20419;-65
2022/06/21 05:39:51;;;;;;;;;;;22.70;50.10;;;;;;5042848;28;20283;-65
2022/06/21 05:42:17;;;;;;;;;;;22.70;50.20;;;;;;5042186;28;19928;-66
2022/06/21 05:44:53;;;;;;;;;;;22.70;50.30;;;;;;5042629;28;19916;-68
2022/06/21 05:47:21;;;;;;;;;;;22.70;50.30;;;;;;5042574;28;19963;-67
2022/06/21 05:49:46;;;;;;;;;;;22.70;50.10;;;;;;5042665;28;19920;-69
2022/06/21 05:52:41;;;;;;;;;;;22.70;50.40;;;;;;5041915;28;19918;-67
2022/06/21 05:55:09;;;;;;;;;;;22.70;50.40;;;;;;5025003;28;19988;-66
2022/06/21 05:57:46;;;;;;;;;;;22.70;50.50;;;;;;5045400;28;19913;-69
2022/06/21 06:00:24;;;;;;;;;;;22.70;50.60;;;;;;5044500;28;20272;-68
2022/06/21 06:02:50;;;;;;;;;;;22.60;50.90;;;;;;5043472;28;19913;-68
2022/06/21 06:05:17;;;;;;;;;;;22.70;50.60;;;;;;5043861;28;19967;-68
2022/06/21 06:07:44;;;;;;;;;;;22.60;50.80;;;;;;5043820;28;20410;-68
2022/06/21 06:10:09;;;;;;;;;;;22.70;50.70;;;;;;5044288;28;19939;-69
2022/06/21 06:12:39;;;;;;;;;;;22.70;51.10;;;;;;5044067;28;20555;-69
2022/06/21 06:15:05;;;;;;;;;;;22.60;51.20;;;;;;5045137;28;19959;-69
2022/06/21 06:17:34;;;;;;;;;;;22.50;51.00;;;;;;5044152;28;19972;-70
2022/06/21 06:20:22;;;;;;;;;;;22.40;52.80;;;;;;5044122;28;19931;-68
2022/06/21 06:22:55;;;;;;;;;;;22.40;52.50;;;;;;5042400;28;22423;-68
2022/06/21 06:25:39;;;;;;;;;;;22.40;52.00;;;;;;5044490;28;20721;-64
2022/06/21 06:28:17;;;;;;;;;;;22.30;51.80;;;;;;5046681;28;19916;-67
2022/06/21 06:30:44;;;;;;;;;;;22.40;51.90;;;;;;5045580;28;20446;-69
2022/06/21 06:33:18;;;;;;;;;;;22.40;52.40;;;;;;5047386;28;19917;-69
2022/06/21 06:35:44;;;;;;;;;;;22.40;51.60;;;;;;5044524;28;19913;-70
2022/06/21 06:38:11;;;;;;;;;;;22.40;51.40;;;;;;5045382;28;19913;-70
2022/06/21 06:40:37;;;;;;;;;;;22.40;51.30;;;;;;5042627;28;20375;-70
2022/06/21 06:43:05;;;;;;;;;;;22.40;51.20;;;;;;5043216;28;19917;-69
2022/06/21 06:45:31;;;;;;;;;;;22.50;51.10;;;;;;5026966;28;19944;-69
2022/06/21 06:48:03;;;;;;;;;;;22.40;51.00;;;;;;5043392;28;19913;-71
2022/06/21 06:50:35;;;;;;;;;;;22.40;51.10;;;;;;5045201;28;19920;-65
2022/06/21 06:53:02;;;;;;;;;;;22.40;51.20;;;;;;5043328;28;20171;-70
2022/06/21 06:55:32;;;;;;;;;;;22.40;51.10;;;;;;5044348;28;19913;-67
2022/06/21 06:58:00;;;;;;;;;;;22.40;50.90;;;;;;5041202;28;19961;-68
2022/06/21 07:00:39;;;;;;;;;;;22.40;50.90;;;;;;5044182;28;19961;-68
2022/06/21 07:03:06;;;;;;;;;;;22.40;50.90;;;;;;5042314;28;19917;-68
2022/06/21 07:05:36;;;;;;;;;;;22.30;50.70;;;;;;5042289;28;19917;-70
2022/06/21 07:08:04;;;;;;;;;;;22.30;50.70;;;;;;5026238;28;19920;-68
2022/06/21 07:10:29;;;;;;;;;;;22.30;50.80;;;;;;5036231;28;19974;-68
2022/06/21 07:12:55;;;;;;;;;;;22.40;50.80;;;;;;5041330;28;20452;-68
2022/06/21 07:15:21;;;;;;;;;;;22.40;50.70;;;;;;5043448;28;19913;-67
2022/06/21 07:17:51;;;;;;;;;;;22.40;50.70;;;;;;5041981;28;19921;-68
2022/06/21 07:20:16;;;;;;;;;;;22.30;51.20;;;;;;5042135;28;20291;-65
2022/06/21 07:22:42;;;;;;;;;;;22.40;50.80;;;;;;5042315;28;19913;-68
2022/06/21 07:25:19;;;;;;;;;;;22.30;50.90;;;;;;5042634;28;20379;-69
2022/06/21 07:27:46;;;;;;;;;;;22.30;50.90;;;;;;5041037;28;19921;-69
2022/06/21 07:30:12;;;;;;;;;;;22.30;50.90;;;;;;5041466;28;19921;-69
2022/06/21 07:32:39;;;;;;;;;;;22.30;50.90;;;;;;5041420;28;19948;-69
2022/06/21 07:35:09;;;;;;;;;;;22.20;51.10;;;;;;5043491;28;19955;-66
2022/06/21 07:37:41;;;;;;;;;;;22.20;51.30;;;;;;5045731;28;19920;-69
2022/06/21 07:40:10;;;;;;;;;;;22.30;50.90;;;;;;5046957;28;20003;-64
2022/06/21 07:42:41;;;;;;;;;;;22.40;51.00;;;;;;5044579;28;19920;-68
2022/06/21 07:45:15;;;;;;;;;;;22.40;50.90;;;;;;5028124;28;20011;-70
2022/06/21 07:47:50;;;;;;;;;;;22.40;51.00;;;;;;5037113;28;19970;-69
2022/06/21 07:50:24;;;;;;;;;;;22.40;50.80;;;;;;5028006;28;19920;-68
2022/06/21 07:52:51;;;;;;;;;;;22.40;50.80;;;;;;5045052;28;19959;-67
2022/06/21 07:55:28;;;;;;;;;;;22.30;51.20;;;;;;5044863;28;20605;-69
2022/06/21 07:57:55;;;;;;;;;;;22.40;51.10;;;;;;5044087;28;19919;-69
2022/06/21 08:00:21;;;;;;;;;;;22.40;51.20;;;;;;5044743;28;19913;-69
2022/06/21 08:08:21;;;;;;;;;;;22.40;51.40;;;;;;5045031;28;19967;-68
2022/06/21 08:10:54;;;;;;;;;;;22.40;51.30;;;;;;5044142;28;20478;-69
2022/06/21 08:13:19;;;;;;;;;;;22.30;51.30;;;;;;5045785;28;20334;-69
2022/06/21 08:15:49;;;;;;;;;;;22.10;52.00;;;;;;5045291;28;19921;-69
2022/06/21 08:18:26;;;;;;;;;;;22.20;51.60;;;;;;5043445;28;19916;-68
2022/06/21 08:20:57;;;;;;;;;;;22.30;51.50;;;;;;5045220;28;20924;-69
2022/06/21 08:23:30;;;;;;;;;;;22.30;51.40;;;;;;5043793;28;20007;-65
2022/06/21 08:26:12;;;;;;;;;;;22.30;51.30;;;;;;5044243;28;20075;-69
2022/06/21 08:28:41;;;;;;;;;;;22.40;51.50;;;;;;5043724;28;19927;-69
2022/06/21 08:31:18;;;;;;;;;;;22.30;51.60;;;;;;5027124;28;19920;-69
2022/06/21 08:34:16;;;;;;;;;;;22.30;51.80;;;;;;5043716;28;20421;-69
2022/06/21 08:36:52;;;;;;;;;;;22.30;51.80;;;;;;5031892;28;19913;-69
2022/06/21 08:39:18;;;;;;;;;;;22.30;50.50;;;;;;5023207;28;20483;-69
2022/06/21 08:41:55;;;;;;;;;;;22.20;51.70;;;;;;5023841;28;19919;-70
2022/06/21 08:44:38;;;;;;;;;;;22.30;51.60;;;;;;5007357;28;19918;-69
2022/06/21 08:47:04;;;;;;;;;;;22.30;51.50;;;;;;5023917;28;20590;-69
2022/06/21 08:49:34;;;;;;;;;;;22.30;51.50;;;;;;5045375;28;19920;-69
2022/06/21 08:52:20;;;;;;;;;;;22.30;51.80;;;;;;5037267;28;19966;-65
2022/06/21 08:54:49;;;;;;;;;;;22.40;51.20;;;;;;5053613;28;19913;-67
2022/06/21 08:57:19;;;;;;;;;;;22.30;51.40;;;;;;5026821;28;19940;-68
2022/06/21 08:59:51;;;;;;;;;;;22.40;51.70;;;;;;5043555;28;20477;-65
2022/06/21 09:02:25;;;;;;;;;;;22.40;51.40;;;;;;5026041;28;20391;-69
2022/06/21 09:05:09;;;;;;;;;;;22.40;51.40;;;;;;5044535;28;19917;-68
2022/06/21 09:07:44;;;;;;;;;;;22.20;51.50;;;;;;5041889;28;19960;-68
2022/06/21 09:10:20;;;;;;;;;;;21.90;51.80;;;;;;5042489;28;20023;-68
2022/06/21 09:12:45;;;;;;;;;;;21.90;51.90;;;;;;5043030;28;19919;-68
2022/06/21 09:15:17;;;;;;;;;;;22.10;51.70;;;;;;5044405;28;20317;-68
2022/06/21 09:17:46;;;;;;;;;;;22.20;51.60;;;;;;5042614;28;20603;-67
2022/06/21 09:20:31;;;;;;;;;;;22.10;52.00;;;;;;5043308;28;19917;-67
2022/06/21 09:23:12;;;;;;;;;;;22.20;51.50;;;;;;5043319;28;19935;-68
2022/06/21 09:25:37;;;;;;;;;;;22.30;51.50;;;;;;5042268;28;21536;-68
2022/06/21 09:28:05;;;;;;;;;;;22.20;51.60;;;;;;5042364;28;20042;-69
2022/06/21 09:30:41;;;;;;;;;;;22.20;51.50;;;;;;5043531;28;20163;-68
2022/06/21 09:33:21;;;;;;;;;;;22.00;50.80;;;;;;5042192;28;21908;-69
2022/06/21 09:35:49;;;;;;;;;;;22.10;51.70;;;;;;5044253;28;19920;-68
2022/06/21 09:38:16;;;;;;;;;;;22.20;51.40;;;;;;5042771;28;19974;-68
2022/06/21 09:40:44;;;;;;;;;;;22.30;51.40;;;;;;5042786;28;20537;-67
2022/06/21 09:43:12;;;;;;;;;;;22.20;51.80;;;;;;5026232;28;20394;-68
2022/06/21 09:45:49;;;;;;;;;;;22.20;50.20;;;;;;5044090;28;19913;-66
2022/06/21 09:48:21;;;;;;;;;;;22.30;51.50;;;;;;5043484;28;19913;-65
2022/06/21 09:51:15;;;;;;;;;;;22.30;51.30;;;;;;5043121;28;20007;-68
2022/06/21 09:53:44;;;;;;;;;;;22.30;51.30;;;;;;5038699;28;19959;-68
2022/06/21 09:56:17;;;;;;;;;;;22.30;51.10;;;;;;5042297;28;19917;-68
2022/06/21 09:58:47;;;;;;;;;;;22.30;51.70;;;;;;5042117;28;19913;-67
2022/06/21 10:01:22;;;;;;;;;;;22.00;51.30;;;;;;5042346;28;19913;-67
2022/06/21 10:03:48;;;;;;;;;;;21.70;47.80;;;;;;5043742;28;19924;-68
2022/06/21 10:06:23;;;;;;;;;;;21.50;51.20;;;;;;5042757;28;20325;-68
2022/06/21 10:09:21;;;;;;;;;;;21.80;51.60;;;;;;5042171;28;19948;-68
2022/06/21 10:11:56;;;;;;;;;;;21.90;51.50;;;;;;5030597;28;19920;-66
2022/06/21 10:14:40;;;;;;;;;;;22.10;51.80;;;;;;5042402;28;19917;-68
2022/06/21 10:17:25;;;;;;;;;;;22.10;51.20;;;;;;5043516;28;20352;-68
2022/06/21 10:19:58;;;;;;;;;;;22.20;51.00;;;;;;5043886;28;19988;-68
2022/06/21 10:22:39;;;;;;;;;;;22.30;51.10;;;;;;5042301;28;19921;-68
2022/06/21 10:25:14;;;;;;;;;;;22.30;51.20;;;;;;5047361;23;20405;-66
2022/06/21 10:27:49;;;;;;;;;;;22.30;50.90;;;;;;5040267;28;20039;-66
2022/06/21 10:30:21;;;;;;;;;;;22.30;48.50;;;;;;5040405;28;19917;-65
2022/06/21 10:32:50;;;;;;;;;;;22.10;50.10;;;;;;5041518;28;19917;-67
2022/06/21 10:35:28;;;;;;;;;;;22.10;51.60;;;;;;5024910;28;20016;-66
2022/06/21 10:37:57;;;;;;;;;;;22.20;51.10;;;;;;5041436;28;19921;-66
2022/06/21 10:40:41;;;;;;;;;;;22.20;51.00;;;;;;5028914;28;19928;-65
2022/06/21 10:43:09;;;;;;;;;;;22.20;51.00;;;;;;5022987;28;19925;-66
2022/06/21 10:45:41;;;;;;;;;;;22.30;51.20;;;;;;5037427;28;20338;-65
2022/06/21 10:48:25;;;;;;;;;;;22.30;51.20;;;;;;5042982;28;19917;-66
2022/06/21 10:51:13;;;;;;;;;;;22.30;51.10;;;;;;5026894;28;20016;-66
2022/06/21 10:53:56;;;;;;;;;;;22.30;51.00;;;;;;5021211;28;21281;-66
2022/06/21 11:02:28;;;;;;;;;;;22.30;51.10;;;;;;5023637;28;20348;-66
2022/06/21 11:04:57;;;;;;;;;;;22.30;51.10;;;;;;5030055;28;20011;-66
2022/06/21 11:07:24;;;;;;;;;;;22.30;51.10;;;;;;5041729;28;19913;-65
2022/06/21 11:09:51;;;;;;;;;;;22.40;50.40;;;;;;5041331;28;19995;-66
2022/06/21 11:15:20;;;;;;;;;;;22.30;50.80;;;;;;5035889;28;20013;-65
2022/06/21 11:18:04;;;;;;;;;;;22.20;50.70;;;;;;5047079;28;19996;-65
2022/06/21 11:20:29;;;;;;;;;;;22.20;50.70;;;;;;5038717;28;20427;-66
2022/06/21 11:23:07;;;;;;;;;;;22.30;51.00;;;;;;5026419;28;19917;-67
2022/06/21 11:25:41;;;;;;;;;;;22.30;51.10;;;;;;5034990;28;19920;-66
2022/06/21 11:28:27;;;;;;;;;;;22.20;48.20;;;;;;5046244;28;19916;-65
2022/06/21 11:30:54;;;;;;;;;;;22.20;50.70;;;;;;5035714;28;20462;-66
2022/06/21 11:33:29;;;;;;;;;;;22.30;51.10;;;;;;5024949;28;19921;-66
2022/06/21 11:36:13;;;;;;;;;;;22.30;50.50;;;;;;5036789;28;20011;-66
2022/06/21 11:38:42;;;;;;;;;;;22.30;50.90;;;;;;5045900;28;19912;-66
2022/06/21 11:44:28;;;;;;;;;;;22.10;49.80;;;;;;5025049;28;19967;-66
2022/06/21 11:46:59;;;;;;;;;;;22.00;48.90;;;;;;5042694;28;19955;-65
2022/06/21 11:49:27;;;;;;;;;;;22.10;51.10;;;;;;5028037;28;19925;-67
2022/06/21 11:52:11;;;;;;;;;;;22.10;50.50;;;;;;5029682;28;19921;-66
2022/06/21 11:54:42;;;;;;;;;;;22.00;47.90;;;;;;5024074;28;19960;-66
2022/06/21 11:57:14;;;;;;;;;;;22.10;50.00;;;;;;5041513;28;20027;-66
2022/06/21 12:00:18;;;;;;;;;;;22.10;50.10;;;;;;5043803;28;20539;-66
2022/06/21 12:02:58;;;;;;;;;;;22.20;50.30;;;;;;4983010;28;19918;-66
2022/06/21 12:05:43;;;;;;;;;;;21.90;44.40;;;;;;4983905;28;20024;-66
2022/06/21 12:08:26;;;;;;;;;;;21.80;49.60;;;;;;5012013;28;19917;-66
2022/06/21 12:10:56;;;;;;;;;;;21.90;49.10;;;;;;5025406;28;19913;-65
2022/06/21 12:13:27;;;;;;;;;;;21.90;45.80;;;;;;5023995;28;19936;-66
2022/06/21 12:15:56;;;;;;;;;;;21.90;50.40;;;;;;5029688;28;19913;-67
2022/06/21 12:18:22;;;;;;;;;;;21.90;45.60;;;;;;5044355;28;20345;-66
2022/06/21 12:20:55;;;;;;;;;;;21.90;49.40;;;;;;5041297;28;20012;-66
2022/06/21 12:23:24;;;;;;;;;;;22.10;50.00;;;;;;5024824;28;19940;-66
2022/06/21 12:25:50;;;;;;;;;;;22.20;49.80;;;;;;5027595;28;20394;-66
2022/06/21 12:28:16;;;;;;;;;;;22.30;49.80;;;;;;5027250;28;19912;-66
2022/06/21 12:30:41;;;;;;;;;;;21.90;45.30;;;;;;5044685;28;19919;-66
2022/06/21 12:33:08;;;;;;;;;;;21.90;49.00;;;;;;5023382;28;19921;-66
2022/06/21 12:35:39;;;;;;;;;;;22.00;47.30;;;;;;5023972;28;19995;-67
2022/06/21 12:38:06;;;;;;;;;;;22.10;49.30;;;;;;5050102;28;19935;-66
2022/06/21 12:40:35;;;;;;;;;;;22.20;49.60;;;;;;5044250;28;19936;-66
2022/06/21 12:43:16;;;;;;;;;;;22.20;49.80;;;;;;4998332;28;20419;-66
2022/06/21 12:45:57;;;;;;;;;;;22.20;50.00;;;;;;5023676;28;20012;-66
2022/06/21 12:48:41;;;;;;;;;;;22.30;50.60;;;;;;5007055;28;19913;-66
2022/06/21 12:51:11;;;;;;;;;;;22.30;50.60;;;;;;5025638;28;20439;-66
2022/06/21 12:53:48;;;;;;;;;;;22.30;50.70;;;;;;5044388;28;19924;-64
2022/06/21 12:56:26;;;;;;;;;;;22.40;51.10;;;;;;5041976;28;19913;-67
2022/06/21 12:59:10;;;;;;;;;;;22.40;51.00;;;;;;5024404;28;19921;-66
2022/06/21 13:01:44;;;;;;;;;;;22.30;47.50;;;;;;5027781;28;20648;-67
2022/06/21 13:04:19;;;;;;;;;;;22.30;49.20;;;;;;5043866;28;20606;-66
2022/06/21 13:07:03;;;;;;;;;;;22.30;46.10;;;;;;5038548;28;19921;-66
2022/06/21 13:09:29;;;;;;;;;;;22.30;50.10;;;;;;5024480;28;19913;-66
2022/06/21 13:11:58;;;;;;;;;;;22.30;50.10;;;;;;5028822;28;20008;-66
2022/06/21 13:14:35;;;;;;;;;;;22.30;49.20;;;;;;5043776;28;19956;-66
2022/06/21 13:17:18;;;;;;;;;;;22.30;50.00;;;;;;5038769;28;19917;-66
2022/06/21 13:19:46;;;;;;;;;;;22.30;50.00;;;;;;5022788;28;19913;-67
2022/06/21 13:22:20;;;;;;;;;;;22.30;49.40;;;;;;5028403;28;20698;-66
2022/06/21 13:25:04;;;;;;;;;;;22.30;49.10;;;;;;5042892;28;19921;-66
2022/06/21 13:27:39;;;;;;;;;;;22.20;47.50;;;;;;5033538;28;26665;-66
2022/06/21 13:30:25;;;;;;;;;;;22.20;48.60;;;;;;5021968;28;20397;-66
2022/06/21 13:33:09;;;;;;;;;;;22.20;48.20;;;;;;5032274;28;19920;-66
2022/06/21 13:35:46;;;;;;;;;;;22.20;48.00;;;;;;5043467;28;19913;-66
2022/06/21 13:38:20;;;;;;;;;;;22.20;48.60;;;;;;5029808;28;19913;-66
2022/06/21 13:40:49;;;;;;;;;;;22.20;47.40;;;;;;5022206;28;19944;-66
2022/06/21 13:43:16;;;;;;;;;;;22.30;49.10;;;;;;5034202;28;20438;-65
2022/06/21 13:45:43;;;;;;;;;;;22.30;49.50;;;;;;5042073;28;19940;-66
2022/06/21 13:48:28;;;;;;;;;;;22.30;48.40;;;;;;5031710;28;20462;-67
2022/06/21 13:50:57;;;;;;;;;;;22.30;47.90;;;;;;5021989;28;19920;-65
2022/06/21 13:53:37;;;;;;;;;;;22.30;49.80;;;;;;5034754;28;19913;-65
2022/06/21 13:56:02;;;;;;;;;;;22.40;49.90;;;;;;5043523;28;20411;-66
2022/06/21 13:58:34;;;;;;;;;;;22.40;49.50;;;;;;5031372;28;20007;-67
2022/06/21 14:01:10;;;;;;;;;;;22.40;49.50;;;;;;5023637;28;19953;-67
2022/06/21 14:03:55;;;;;;;;;;;22.40;49.70;;;;;;5029140;28;20416;-66
2022/06/21 14:06:41;;;;;;;;;;;22.40;50.00;;;;;;5023332;28;19957;-66
2022/06/21 14:09:21;;;;;;;;;;;22.40;48.50;;;;;;5021144;28;20323;-66
2022/06/21 14:11:51;;;;;;;;;;;22.40;49.90;;;;;;5022178;28;20044;-66
2022/06/21 14:14:21;;;;;;;;;;;22.30;48.30;;;;;;5038531;28;19928;-66
2022/06/21 14:16:52;;;;;;;;;;;22.30;49.60;;;;;;5043744;28;19948;-67
2022/06/21 14:19:21;;;;;;;;;;;22.30;48.80;;;;;;5025972;28;19921;-66
2022/06/21 14:21:56;;;;;;;;;;;22.30;48.70;;;;;;5021716;28;20347;-66
2022/06/21 14:24:24;;;;;;;;;;;22.30;49.00;;;;;;5038093;28;19968;-66
2022/06/21 14:26:54;;;;;;;;;;;22.40;48.90;;;;;;5043377;28;19912;-67
2022/06/21 14:29:25;;;;;;;;;;;22.40;47.60;;;;;;5027373;28;20409;-67
2022/06/21 14:32:12;;;;;;;;;;;22.40;49.60;;;;;;5021560;28;19924;-66
2022/06/21 14:34:39;;;;;;;;;;;22.40;49.40;;;;;;5021572;28;20279;-66
2022/06/21 14:37:09;;;;;;;;;;;22.40;47.50;;;;;;5042431;28;19913;-66
2022/06/21 14:39:37;;;;;;;;;;;22.40;45.00;;;;;;5017130;28;22229;-67
2022/06/21 14:42:11;;;;;;;;;;;22.30;48.00;;;;;;5015703;28;19913;-67
2022/06/21 14:44:41;;;;;;;;;;;22.30;48.80;;;;;;5038263;28;21196;-66
2022/06/21 14:47:13;;;;;;;;;;;22.30;46.40;;;;;;5039622;28;19944;-66
2022/06/21 14:49:46;;;;;;;;;;;22.30;45.60;;;;;;5045453;28;19913;-66
2022/06/21 14:52:22;;;;;;;;;;;22.30;47.20;;;;;;5028947;28;20503;-66
2022/06/21 14:55:06;;;;;;;;;;;22.30;47.30;;;;;;5032148;28;20004;-66
2022/06/21 14:57:45;;;;;;;;;;;22.20;44.80;;;;;;5026928;28;19921;-66
2022/06/21 15:00:19;;;;;;;;;;;22.20;47.50;;;;;;5042417;28;19913;-66
2022/06/21 15:02:57;;;;;;;;;;;22.20;47.50;;;;;;5046885;28;20326;-66